Aérodrome :
LOGIN :

S'inscrire | Disclaimer

   EN    FR    IT 

 










Légende :    VFR   VFR Marginal   IFR   IFR Intensif   IFR Très Intensif
Visi : 
Plafond : 
>= 8 km
>= 3000ft
5 à 8 km
1000 à 3000 ft
1500m à 5 km
500 à 1000 ft
800 à 1500m
200 à 500 ft
< 800m
< 200 ft
Symboles :   Orages  Brouillard  Fortes neiges  Fortes précipitations  Vent > 20 kt
SIGMETs :   Divers  Orages  Givrage  Turbulence  Onde Orograph.  Cendres Volcan.






- Altitude de l'aérodrome : 97 ft
- Code IATA : EBJ


EKEB - Esbjerg

DERNIER METAR :
  • 210120Z AUTO 17003KT 9999 -SHRA OVC018/// 05/04 Q1014

METARs EXPIRÉS :
  • 210050Z AUTO 18004KT 160V220 9999 -DZ OVC006/// 05/04 Q1014
  • 210020Z AUTO 20003KT 7000 DZ BKN007/// 05/04 Q1014
  • 202350Z AUTO 24003KT 8000 -RA OVC008/// 05/04 Q1014
  • 202320Z AUTO 26004KT 9999 -SHRA OVC008/// 05/04 Q1014
  • 202250Z AUTO 28004KT 9999 -SHRA OVC011/// 05/04 Q1015

Prévision TAF périmée.



MET'MAP, la Météo Aéronautique d'un coup d'oeil ! - Copyright ORBIFLY Décembre 2007 - Disclaimer

ORBIFLY MET'MAP TEAM :

Programmation & Développement : Alexandra Zaïnal
Conception & Développement : Baudouin d'Aumeries
Co-Programmation & Développement : Marc-Olivier Méhu
Soutien technique & logistique : Manuel Goepfert

Contact : metmap@orbifly.com




SOURCES & CREDITS :

   NOAA